createdAt,value
2023-05-19T00:00:02.379Z,41.37
2023-05-19T00:00:48.512Z,42.01
2023-05-19T00:01:23.260Z,41.80
2023-05-19T00:01:56.723Z,41.82
2023-05-19T00:02:34.024Z,41.58
2023-05-19T00:03:09.236Z,41.36
2023-05-19T00:03:52.809Z,41.67
2023-05-19T00:04:28.342Z,41.79
2023-05-19T00:05:02.266Z,41.81
2023-05-19T00:05:36.818Z,41.85
2023-05-19T00:06:12.772Z,41.88
2023-05-19T00:06:51.105Z,42.03
2023-05-19T00:07:33.438Z,42.31
2023-05-19T00:08:06.963Z,42.29
2023-05-19T00:08:39.378Z,41.96
2023-05-19T00:09:14.893Z,42.25
2023-05-19T00:09:47.822Z,41.63
2023-05-19T00:10:20.898Z,41.81
2023-05-19T00:10:56.369Z,42.03
2023-05-19T00:11:29.739Z,42.09
2023-05-19T00:12:02.494Z,42.30
2023-05-19T00:12:38.744Z,42.16
2023-05-19T00:13:11.635Z,42.14
2023-05-19T00:13:48.443Z,42.12
2023-05-19T00:14:23.878Z,41.93
2023-05-19T00:14:56.638Z,42.17
2023-05-19T00:15:29.552Z,42.16
2023-05-19T00:16:02.389Z,41.97
2023-05-19T00:16:38.140Z,41.77
2023-05-19T00:17:11.034Z,41.92
2023-05-19T00:17:43.242Z,42.27
2023-05-19T00:18:18.281Z,41.92
2023-05-19T00:18:50.552Z,42.00
2023-05-19T00:19:25.145Z,42.30
2023-05-19T00:20:00.141Z,41.82
2023-05-19T00:20:32.633Z,42.15
2023-05-19T00:21:05.057Z,42.42
2023-05-19T00:21:41.171Z,42.36
2023-05-19T00:22:13.469Z,42.15
2023-05-19T00:22:48.302Z,42.46
2023-05-19T00:23:23.130Z,42.38
2023-05-19T00:23:55.870Z,42.16
2023-05-19T00:24:30.978Z,42.24
2023-05-19T00:25:03.481Z,42.21
2023-05-19T00:25:35.929Z,42.59
2023-05-19T00:26:10.702Z,42.25
2023-05-19T00:26:44.217Z,42.45
2023-05-19T00:27:16.454Z,42.08
2023-05-19T00:27:51.264Z,42.58
2023-05-19T00:28:23.543Z,42.49
2023-05-19T00:28:55.760Z,42.60
2023-05-19T00:29:28.147Z,42.72
2023-05-19T00:30:02.956Z,42.59
2023-05-19T00:30:35.273Z,42.37
2023-05-19T00:31:07.611Z,42.59
2023-05-19T00:31:42.387Z,42.40
2023-05-19T00:32:15.929Z,42.60
2023-05-19T00:32:48.219Z,42.67
2023-05-19T00:33:23.113Z,42.62
2023-05-19T00:33:55.412Z,42.49
2023-05-19T00:34:30.202Z,42.34
2023-05-19T00:35:02.396Z,42.19
2023-05-19T00:35:34.662Z,42.60
2023-05-19T00:36:10.503Z,42.45
2023-05-19T00:36:42.678Z,42.20
2023-05-19T00:37:15.279Z,42.61
2023-05-19T00:37:52.944Z,42.54
2023-05-19T00:38:25.134Z,42.23
2023-05-19T00:38:57.397Z,42.74
2023-05-19T00:39:29.575Z,42.70
2023-05-19T00:40:05.803Z,42.60
2023-05-19T00:40:38.298Z,42.83
2023-05-19T00:41:11.176Z,42.58
2023-05-19T00:41:43.615Z,42.66
2023-05-19T00:42:18.499Z,42.48
2023-05-19T00:42:50.812Z,42.72
2023-05-19T00:43:23.012Z,42.58
2023-05-19T00:43:58.337Z,42.40
2023-05-19T00:44:30.692Z,42.40
2023-05-19T00:45:02.880Z,42.86
2023-05-19T00:45:38.253Z,42.63
2023-05-19T00:46:11.322Z,42.71
2023-05-19T00:46:43.664Z,42.50
2023-05-19T00:47:18.662Z,42.92
2023-05-19T00:47:51.320Z,42.60
2023-05-19T00:48:23.638Z,42.73
2023-05-19T00:48:55.810Z,42.76
2023-05-19T00:49:30.592Z,42.75
2023-05-19T00:50:02.937Z,43.07
2023-05-19T00:50:35.448Z,43.28
2023-05-19T00:51:07.856Z,43.12
2023-05-19T00:51:44.053Z,43.27
2023-05-19T00:52:16.363Z,42.93
2023-05-19T00:52:51.500Z,42.92
2023-05-19T00:53:27.446Z,43.15
2023-05-19T00:53:59.856Z,43.42
2023-05-19T00:54:32.898Z,43.27
2023-05-19T00:55:10.023Z,43.33
2023-05-19T00:55:43.350Z,43.34
2023-05-19T00:56:17.788Z,42.98
2023-05-19T00:56:52.807Z,43.19
2023-05-19T00:57:26.216Z,43.02
2023-05-19T00:57:58.742Z,42.75
2023-05-19T00:58:36.140Z,43.13
2023-05-19T00:59:09.107Z,43.40
2023-05-19T00:59:41.433Z,43.21
2023-05-19T01:00:17.687Z,42.94
2023-05-19T01:00:50.836Z,43.42
2023-05-19T01:01:23.578Z,43.57
2023-05-19T01:01:58.678Z,43.65
2023-05-19T01:02:32.609Z,43.45
2023-05-19T01:03:11.645Z,43.33
2023-05-19T01:03:48.211Z,43.43
2023-05-19T01:04:21.958Z,43.36
2023-05-19T01:04:56.433Z,43.67
2023-05-19T01:05:31.430Z,43.75
2023-05-19T01:06:05.420Z,43.95
2023-05-19T01:06:38.241Z,44.01
2023-05-19T01:07:12.676Z,43.53
2023-05-19T01:07:47.716Z,43.58
2023-05-19T01:08:22.773Z,43.94
2023-05-19T01:08:55.112Z,43.54
2023-05-19T01:09:30.882Z,43.90
2023-05-19T01:10:03.521Z,43.40
2023-05-19T01:10:35.931Z,43.34
2023-05-19T01:11:11.266Z,43.68
2023-05-19T01:11:43.484Z,43.94
2023-05-19T01:12:16.242Z,43.52
2023-05-19T01:12:51.906Z,43.87
2023-05-19T01:13:24.303Z,43.50
2023-05-19T01:13:56.778Z,43.19
2023-05-19T01:14:31.932Z,43.58
2023-05-19T01:15:06.870Z,43.17
2023-05-19T01:15:50.967Z,43.30
2023-05-19T01:16:33.336Z,43.24
2023-05-19T01:17:15.335Z,43.71
2023-05-19T01:17:56.369Z,43.63
2023-05-19T01:18:44.741Z,43.76
2023-05-19T01:19:39.337Z,43.39
2023-05-19T01:20:23.000Z,43.97
2023-05-19T01:21:06.631Z,43.77
2023-05-19T01:22:23.314Z,44.14
2023-05-19T01:23:43.219Z,44.33
2023-05-19T01:24:47.954Z,44.44
2023-05-19T01:25:50.212Z,44.63
2023-05-19T01:27:03.836Z,45.41
2023-05-19T01:28:16.535Z,45.75
2023-05-19T01:29:10.433Z,45.92
2023-05-19T01:30:00.565Z,45.90
2023-05-19T01:30:36.366Z,45.56
2023-05-19T01:31:14.413Z,45.71
2023-05-19T01:31:48.179Z,45.68
2023-05-19T01:32:24.123Z,45.60
2023-05-19T01:33:03.748Z,45.54
2023-05-19T01:33:38.123Z,46.00
2023-05-19T01:34:13.691Z,45.63
2023-05-19T01:34:51.801Z,45.68
2023-05-19T01:35:26.321Z,45.67
2023-05-19T01:36:00.392Z,45.50
2023-05-19T01:36:36.419Z,45.75
2023-05-19T01:37:09.937Z,45.60
2023-05-19T01:37:43.233Z,45.59
2023-05-19T01:38:21.515Z,45.44
2023-05-19T01:38:57.032Z,45.50
2023-05-19T01:39:29.936Z,45.76
2023-05-19T01:40:06.498Z,45.09
2023-05-19T01:40:40.624Z,45.10
2023-05-19T01:41:13.278Z,45.04
2023-05-19T01:41:49.690Z,45.36
2023-05-19T01:42:23.842Z,45.99
2023-05-19T01:42:58.353Z,46.25
2023-05-19T01:43:34.192Z,45.82
2023-05-19T01:44:06.820Z,45.95
2023-05-19T01:44:39.628Z,46.09
2023-05-19T01:45:15.450Z,45.88
2023-05-19T01:45:51.282Z,46.13
2023-05-19T01:46:27.105Z,46.04
2023-05-19T01:47:00.483Z,46.04
2023-05-19T01:47:33.295Z,45.59
2023-05-19T01:48:08.531Z,46.05
2023-05-19T01:48:48.293Z,45.86
2023-05-19T01:49:20.678Z,46.03
2023-05-19T01:49:52.882Z,46.26
2023-05-19T01:50:28.166Z,45.96
2023-05-19T01:51:00.821Z,46.04
2023-05-19T01:51:33.045Z,45.83
2023-05-19T01:52:08.483Z,45.81
2023-05-19T01:52:40.716Z,45.71
2023-05-19T01:53:13.266Z,45.61
2023-05-19T01:53:48.091Z,45.58
2023-05-19T01:54:20.339Z,45.76
2023-05-19T01:54:52.579Z,46.09
2023-05-19T01:55:28.383Z,45.76
2023-05-19T01:56:00.956Z,46.19
2023-05-19T01:56:42.178Z,46.03
2023-05-19T01:57:24.912Z,45.91
2023-05-19T01:58:10.144Z,46.22
2023-05-19T01:58:45.696Z,46.31
2023-05-19T01:59:30.311Z,46.71
2023-05-19T02:00:15.960Z,46.48
2023-05-19T02:01:03.474Z,46.67
2023-05-19T02:01:56.146Z,46.64
2023-05-19T02:02:38.525Z,46.90
2023-05-19T02:03:21.863Z,46.71
2023-05-19T02:04:15.969Z,46.92
2023-05-19T02:04:54.977Z,46.81
2023-05-19T02:05:35.421Z,46.82
2023-05-19T02:06:15.768Z,46.68
2023-05-19T02:06:54.374Z,46.74
2023-05-19T02:07:40.056Z,46.67
2023-05-19T02:08:21.066Z,47.25
2023-05-19T02:08:58.991Z,47.24
2023-05-19T02:09:42.536Z,47.56
2023-05-19T02:10:19.593Z,48.06
2023-05-19T02:10:57.909Z,48.06
2023-05-19T02:11:39.871Z,48.05
2023-05-19T02:12:19.708Z,47.67
2023-05-19T02:12:54.293Z,48.28
2023-05-19T02:13:34.286Z,48.02
2023-05-19T02:14:11.433Z,48.58
2023-05-19T02:14:52.939Z,48.17
2023-05-19T02:15:26.763Z,47.95
2023-05-19T02:16:05.714Z,48.18
2023-05-19T02:16:42.456Z,48.18
2023-05-19T02:17:18.186Z,48.07
2023-05-19T02:17:54.674Z,48.06
2023-05-19T02:18:30.211Z,48.19
2023-05-19T02:19:02.559Z,48.12
2023-05-19T02:19:37.369Z,48.43
2023-05-19T02:20:13.599Z,48.45
2023-05-19T02:20:45.790Z,48.36
2023-05-19T02:21:17.992Z,48.53
2023-05-19T02:21:53.190Z,48.45
2023-05-19T02:22:27.229Z,48.67
2023-05-19T02:22:59.422Z,48.11
2023-05-19T02:23:34.431Z,48.37
2023-05-19T02:24:07.457Z,48.39
2023-05-19T02:24:41.599Z,48.63
2023-05-19T02:25:16.860Z,48.60
2023-05-19T02:25:49.202Z,48.47
2023-05-19T02:26:21.990Z,48.49
2023-05-19T02:26:57.419Z,48.87
2023-05-19T02:27:30.203Z,48.74
2023-05-19T02:28:02.406Z,48.64
2023-05-19T02:28:37.793Z,48.87
2023-05-19T02:29:10.151Z,48.84
2023-05-19T02:29:42.479Z,48.57
2023-05-19T02:30:18.718Z,49.01
2023-05-19T02:30:50.929Z,48.94
2023-05-19T02:31:25.778Z,48.94
2023-05-19T02:32:00.586Z,48.49
2023-05-19T02:32:32.958Z,48.83
2023-05-19T02:33:06.739Z,48.59
2023-05-19T02:33:39.073Z,48.80
2023-05-19T02:34:13.845Z,48.53
2023-05-19T02:34:46.130Z,48.79
2023-05-19T02:35:18.676Z,48.33
2023-05-19T02:35:53.670Z,48.47
2023-05-19T02:36:26.890Z,48.72
2023-05-19T02:36:59.092Z,48.64
2023-05-19T02:37:35.564Z,48.33
2023-05-19T02:38:07.764Z,48.75
2023-05-19T02:38:42.596Z,48.51
2023-05-19T02:39:14.810Z,48.51
2023-05-19T02:39:47.086Z,48.79
2023-05-19T02:40:22.360Z,48.90
2023-05-19T02:40:55.120Z,48.97
2023-05-19T02:41:27.429Z,48.73
2023-05-19T02:42:02.357Z,48.65
2023-05-19T02:42:34.618Z,48.81
2023-05-19T02:43:07.088Z,48.24
2023-05-19T02:43:42.057Z,48.77
2023-05-19T02:44:14.399Z,48.55
2023-05-19T02:44:46.743Z,48.69
2023-05-19T02:45:21.538Z,48.87
2023-05-19T02:45:53.754Z,48.47
2023-05-19T02:46:28.826Z,48.55
2023-05-19T02:47:03.642Z,48.80
2023-05-19T02:47:37.234Z,48.56
2023-05-19T02:48:09.967Z,48.25
2023-05-19T02:48:42.165Z,48.39
2023-05-19T02:49:16.983Z,48.60
2023-05-19T02:49:49.268Z,48.58
2023-05-19T02:50:22.699Z,48.60
2023-05-19T02:50:57.476Z,48.38
2023-05-19T02:51:29.703Z,48.55
2023-05-19T02:52:02.404Z,48.63
2023-05-19T02:52:34.801Z,48.45
2023-05-19T02:53:09.914Z,48.54
2023-05-19T02:53:42.105Z,48.84
2023-05-19T02:54:14.289Z,48.63
2023-05-19T02:54:46.561Z,48.92
2023-05-19T02:55:21.561Z,48.60
2023-05-19T02:55:53.986Z,48.89
2023-05-19T02:56:26.628Z,48.87
2023-05-19T02:56:58.956Z,48.55
2023-05-19T02:57:34.487Z,48.60
2023-05-19T02:58:06.834Z,49.04
2023-05-19T02:58:39.676Z,48.75
2023-05-19T02:59:14.521Z,48.65
2023-05-19T02:59:46.715Z,48.96
2023-05-19T03:00:19.641Z,49.04
2023-05-19T03:00:52.478Z,48.76
2023-05-19T03:01:30.014Z,48.55
2023-05-19T03:02:03.253Z,48.92
2023-05-19T03:02:35.710Z,48.72
2023-05-19T03:03:10.757Z,48.94
2023-05-19T03:03:43.141Z,48.83
2023-05-19T03:04:15.513Z,48.63
2023-05-19T03:04:50.283Z,48.78
2023-05-19T03:05:22.507Z,48.98
2023-05-19T03:05:54.863Z,49.10
2023-05-19T03:06:29.721Z,48.86
2023-05-19T03:07:02.445Z,49.18
2023-05-19T03:07:35.214Z,49.11
2023-05-19T03:08:10.081Z,48.77
2023-05-19T03:08:42.500Z,49.17
2023-05-19T03:09:15.459Z,49.05
2023-05-19T03:09:50.545Z,49.09
2023-05-19T03:10:22.782Z,48.70
2023-05-19T03:10:55.057Z,48.90
2023-05-19T03:11:27.366Z,48.87
2023-05-19T03:12:04.296Z,49.29
2023-05-19T03:12:37.954Z,48.83
2023-05-19T03:13:10.118Z,49.13
2023-05-19T03:13:45.041Z,49.31
2023-05-19T03:14:18.897Z,48.83
2023-05-19T03:14:51.475Z,49.34
2023-05-19T03:15:26.228Z,49.33
2023-05-19T03:15:59.422Z,49.25
2023-05-19T03:16:34.321Z,49.34
2023-05-19T03:17:10.900Z,49.26
2023-05-19T03:17:43.506Z,49.78
2023-05-19T03:18:16.834Z,49.66
2023-05-19T03:18:51.671Z,49.52
2023-05-19T03:19:23.958Z,49.60
2023-05-19T03:19:56.206Z,49.71
2023-05-19T03:20:31.232Z,49.86
2023-05-19T03:21:04.007Z,49.51
2023-05-19T03:21:36.866Z,49.75
2023-05-19T03:22:11.833Z,49.95
2023-05-19T03:22:44.102Z,50.08
2023-05-19T03:23:16.553Z,50.20
2023-05-19T03:23:51.464Z,50.13
2023-05-19T03:24:24.169Z,50.32
2023-05-19T03:24:56.363Z,49.65
2023-05-19T03:25:31.135Z,50.21
2023-05-19T03:26:04.448Z,50.27
2023-05-19T03:26:36.638Z,49.86
2023-05-19T03:27:12.025Z,50.27
2023-05-19T03:27:44.276Z,50.18
2023-05-19T03:28:17.339Z,49.73
2023-05-19T03:28:52.149Z,49.92
2023-05-19T03:29:24.708Z,49.85
2023-05-19T03:29:57.126Z,50.27
2023-05-19T03:30:32.567Z,50.01
2023-05-19T03:31:21.942Z,50.01
2023-05-19T03:32:00.049Z,49.76
2023-05-19T03:32:33.161Z,49.66
2023-05-19T03:33:05.700Z,49.94
2023-05-19T03:33:40.680Z,49.44
2023-05-19T03:34:12.961Z,49.31
2023-05-19T03:34:45.669Z,49.31
2023-05-19T03:35:20.833Z,49.50
2023-05-19T03:35:53.210Z,49.42
2023-05-19T03:36:32.282Z,49.51
2023-05-19T03:37:05.621Z,49.93
2023-05-19T03:37:39.210Z,49.79
2023-05-19T03:38:14.008Z,49.47
2023-05-19T03:38:53.104Z,49.62
2023-05-19T03:39:25.363Z,49.21
2023-05-19T03:40:00.405Z,49.17
2023-05-19T03:40:33.017Z,49.22
2023-05-19T03:41:10.476Z,49.45
2023-05-19T03:41:45.238Z,49.68
2023-05-19T03:42:17.621Z,49.25
2023-05-19T03:42:49.945Z,49.57
2023-05-19T03:43:24.895Z,49.37
2023-05-19T03:44:02.032Z,49.07
2023-05-19T03:44:34.358Z,49.35
2023-05-19T03:45:10.578Z,48.98
2023-05-19T03:45:43.139Z,49.06
2023-05-19T03:46:37.964Z,48.84
2023-05-19T03:47:16.204Z,48.99
2023-05-19T03:47:51.287Z,49.44
2023-05-19T03:48:45.554Z,49.07
2023-05-19T03:49:38.109Z,49.39
2023-05-19T03:50:44.938Z,49.17
2023-05-19T03:51:30.169Z,49.37
2023-05-19T03:52:13.184Z,49.56
2023-05-19T03:52:58.664Z,49.73
2023-05-19T03:53:36.757Z,49.39
2023-05-19T03:54:11.581Z,49.47
2023-05-19T03:54:43.980Z,49.75
2023-05-19T03:55:16.580Z,49.82
2023-05-19T03:55:51.465Z,50.03
2023-05-19T03:56:25.234Z,49.91
2023-05-19T03:56:57.720Z,49.91
2023-05-19T03:57:33.764Z,50.10
2023-05-19T03:58:06.612Z,49.86
2023-05-19T03:58:40.936Z,50.06
2023-05-19T03:59:16.382Z,50.41
2023-05-19T03:59:48.619Z,50.29
2023-05-19T04:00:20.845Z,50.17
2023-05-19T04:00:55.622Z,50.70
2023-05-19T04:01:27.867Z,50.46
2023-05-19T04:02:00.053Z,50.32
2023-05-19T04:02:37.543Z,50.42
2023-05-19T04:03:10.193Z,50.22
2023-05-19T04:03:45.082Z,50.36
2023-05-19T04:04:17.399Z,50.03
2023-05-19T04:04:51.415Z,49.91
2023-05-19T04:05:26.284Z,50.48
2023-05-19T04:05:59.294Z,50.59
2023-05-19T04:06:31.548Z,50.64
2023-05-19T04:07:04.521Z,50.59
2023-05-19T04:07:39.349Z,50.65
2023-05-19T04:08:11.661Z,50.42
2023-05-19T04:08:44.677Z,50.63
2023-05-19T04:09:20.788Z,50.37
2023-05-19T04:09:52.994Z,50.44
2023-05-19T04:10:25.918Z,50.64
2023-05-19T04:11:02.646Z,50.44
2023-05-19T04:11:35.158Z,50.86
2023-05-19T04:12:08.166Z,50.90
2023-05-19T04:12:43.095Z,50.69
2023-05-19T04:13:15.399Z,51.32
2023-05-19T04:13:47.596Z,51.16
2023-05-19T04:14:22.697Z,51.13
2023-05-19T04:14:54.862Z,51.02
2023-05-19T04:15:27.195Z,50.53
2023-05-19T04:16:02.230Z,50.38
2023-05-19T04:16:35.021Z,50.61
2023-05-19T04:17:08.648Z,50.39
2023-05-19T04:17:46.280Z,50.73
2023-05-19T04:18:18.533Z,50.75
2023-05-19T04:18:50.899Z,50.72
2023-05-19T04:19:25.831Z,50.68
2023-05-19T04:19:58.145Z,50.67
2023-05-19T04:20:30.409Z,50.76
2023-05-19T04:21:05.296Z,50.67
2023-05-19T04:21:37.531Z,50.57
2023-05-19T04:22:10.218Z,50.05
2023-05-19T04:22:45.088Z,49.95
2023-05-19T04:23:17.316Z,50.18
2023-05-19T04:23:50.083Z,50.15
2023-05-19T04:24:25.069Z,50.26
2023-05-19T04:24:57.295Z,50.36
2023-05-19T04:25:29.841Z,50.28
2023-05-19T04:26:06.935Z,50.45
2023-05-19T04:26:42.676Z,50.30
2023-05-19T04:27:16.633Z,50.88
2023-05-19T04:27:48.984Z,50.98
2023-05-19T04:28:24.456Z,51.00
2023-05-19T04:28:56.918Z,51.04
2023-05-19T04:29:30.213Z,51.00
2023-05-19T04:30:05.163Z,51.20
2023-05-19T04:30:38.806Z,51.24
2023-05-19T04:31:12.929Z,51.36
2023-05-19T04:31:47.855Z,51.38
2023-05-19T04:32:20.178Z,51.37
2023-05-19T04:32:58.296Z,51.62
2023-05-19T04:33:34.230Z,51.62
2023-05-19T04:34:08.128Z,51.72
2023-05-19T04:34:40.686Z,51.51
2023-05-19T04:35:17.837Z,51.89
2023-05-19T04:35:50.798Z,51.66
2023-05-19T04:37:46.200Z,51.71
2023-05-19T04:38:22.398Z,52.26
2023-05-19T04:39:02.530Z,52.36
2023-05-19T04:39:39.099Z,52.36
2023-05-19T04:40:12.847Z,52.20
2023-05-19T04:40:46.454Z,52.38
2023-05-19T04:41:21.268Z,52.79
2023-05-19T04:41:54.363Z,52.59
2023-05-19T04:42:30.878Z,52.05
2023-05-19T04:43:09.659Z,52.22
2023-05-19T04:43:44.716Z,52.27
2023-05-19T04:44:20.923Z,52.17
2023-05-19T04:44:55.769Z,52.39
2023-05-19T04:45:30.409Z,52.10
2023-05-19T04:46:09.259Z,52.31
2023-05-19T04:46:42.915Z,52.25
2023-05-19T04:47:15.807Z,52.38
2023-05-19T04:47:50.910Z,51.91
2023-05-19T04:48:26.230Z,52.30
2023-05-19T04:49:01.457Z,52.37
2023-05-19T04:49:38.962Z,51.90
2023-05-19T04:50:11.773Z,52.36
2023-05-19T04:50:44.696Z,52.24
2023-05-19T04:51:20.075Z,52.11
2023-05-19T04:51:55.514Z,51.90
2023-05-19T04:52:31.033Z,51.83
2023-05-19T04:53:06.154Z,52.44
2023-05-19T04:53:40.361Z,52.30
2023-05-19T04:54:14.721Z,52.48
2023-05-19T04:54:49.550Z,52.29
2023-05-19T04:55:22.172Z,52.15
2023-05-19T04:55:55.637Z,52.22
2023-05-19T04:56:30.640Z,52.43
2023-05-19T04:57:03.126Z,52.74
2023-05-19T04:57:40.449Z,52.46
2023-05-19T04:58:12.923Z,52.19
2023-05-19T04:58:45.151Z,52.47
2023-05-19T04:59:20.260Z,52.24
2023-05-19T04:59:53.625Z,52.37
2023-05-19T05:00:26.325Z,52.26
2023-05-19T05:01:06.253Z,52.22
2023-05-19T05:01:40.553Z,52.70
2023-05-19T05:02:14.445Z,52.46
2023-05-19T05:02:50.286Z,52.35
2023-05-19T05:03:28.364Z,52.34
2023-05-19T05:04:03.003Z,52.40
2023-05-19T05:04:42.706Z,52.24
2023-05-19T05:05:15.148Z,52.23
2023-05-19T05:05:47.399Z,51.99
2023-05-19T05:06:22.327Z,52.18
2023-05-19T05:06:54.577Z,51.71
2023-05-19T05:07:28.911Z,52.08
2023-05-19T05:08:04.536Z,52.08
2023-05-19T05:08:41.640Z,52.24
2023-05-19T05:09:14.518Z,52.09
2023-05-19T05:09:49.303Z,51.98
2023-05-19T05:10:22.406Z,52.42
2023-05-19T05:10:55.705Z,52.12
2023-05-19T05:11:31.454Z,52.10
2023-05-19T05:12:04.602Z,52.29
2023-05-19T05:12:37.493Z,52.27
2023-05-19T05:13:13.706Z,52.72
2023-05-19T05:13:46.672Z,52.71
2023-05-19T05:14:20.305Z,52.41
2023-05-19T05:14:56.860Z,52.68
2023-05-19T05:15:30.126Z,52.19
2023-05-19T05:16:06.795Z,52.72
2023-05-19T05:16:42.428Z,52.63
2023-05-19T05:17:18.040Z,52.65
2023-05-19T05:17:51.132Z,52.87
2023-05-19T05:18:27.140Z,52.27
2023-05-19T05:19:02.773Z,52.48
2023-05-19T05:19:38.536Z,52.79
2023-05-19T05:20:13.352Z,52.61
2023-05-19T05:20:47.266Z,52.37
2023-05-19T05:21:24.055Z,52.47
2023-05-19T05:21:57.547Z,52.94
2023-05-19T05:22:30.829Z,52.77
2023-05-19T05:23:06.976Z,52.74
2023-05-19T05:23:40.159Z,52.86
2023-05-19T05:24:13.693Z,52.96
2023-05-19T05:24:53.105Z,53.14
2023-05-19T05:25:26.019Z,53.29
2023-05-19T05:25:58.952Z,53.11
2023-05-19T05:26:37.162Z,53.29
2023-05-19T05:27:10.462Z,52.97
2023-05-19T05:27:43.024Z,53.13
2023-05-19T05:28:18.043Z,53.06
2023-05-19T05:28:51.483Z,53.16
2023-05-19T05:29:23.839Z,52.77
2023-05-19T05:29:59.345Z,52.72
2023-05-19T05:30:34.217Z,53.11
2023-05-19T05:31:06.461Z,52.80
2023-05-19T05:31:41.353Z,52.75
2023-05-19T05:32:14.075Z,53.11
2023-05-19T05:32:46.590Z,52.82
2023-05-19T05:33:35.704Z,52.96
2023-05-19T05:34:10.894Z,53.08
2023-05-19T05:34:43.391Z,52.56
2023-05-19T05:35:19.631Z,52.75
2023-05-19T05:35:51.877Z,53.09
2023-05-19T05:36:24.311Z,52.76
2023-05-19T05:36:59.151Z,53.14
2023-05-19T05:37:31.547Z,53.16
2023-05-19T05:38:03.904Z,53.17
2023-05-19T05:38:39.179Z,52.76
2023-05-19T05:39:11.378Z,53.16
2023-05-19T05:39:45.957Z,52.78
2023-05-19T05:40:22.023Z,52.91
2023-05-19T05:40:54.331Z,53.33
2023-05-19T05:41:27.589Z,53.16
2023-05-19T05:42:02.556Z,53.33
2023-05-19T05:42:35.207Z,53.06
2023-05-19T05:43:07.807Z,53.23
2023-05-19T05:43:47.779Z,53.31
2023-05-19T05:44:19.975Z,53.46
2023-05-19T05:44:55.039Z,53.47
2023-05-19T05:45:27.409Z,53.12
2023-05-19T05:46:00.790Z,53.24
2023-05-19T05:46:36.027Z,53.39
2023-05-19T05:47:09.986Z,53.44
2023-05-19T05:47:42.826Z,53.20
2023-05-19T05:48:18.624Z,53.43
2023-05-19T05:48:51.539Z,53.57
2023-05-19T05:49:27.628Z,53.19
2023-05-19T05:50:03.866Z,53.69
2023-05-19T05:50:37.380Z,53.79
2023-05-19T05:51:11.071Z,53.22
2023-05-19T05:51:57.928Z,53.73
2023-05-19T05:52:41.419Z,53.49
2023-05-19T05:53:21.605Z,53.34
2023-05-19T05:53:58.768Z,53.36
2023-05-19T05:54:40.490Z,53.57
2023-05-19T05:55:15.351Z,53.68
2023-05-19T05:55:48.483Z,53.80
2023-05-19T05:56:25.362Z,53.60
2023-05-19T05:57:00.181Z,53.35
2023-05-19T05:57:35.567Z,53.59
2023-05-19T05:58:11.313Z,53.69
2023-05-19T05:58:44.184Z,53.08
2023-05-19T05:59:17.043Z,53.37
2023-05-19T05:59:52.205Z,53.17
2023-05-19T06:00:25.297Z,53.34
2023-05-19T06:00:58.796Z,53.61
2023-05-19T06:01:35.872Z,53.28
2023-05-19T06:02:10.291Z,53.38
2023-05-19T06:02:43.868Z,53.55
2023-05-19T06:03:22.403Z,53.20
2023-05-19T06:03:54.896Z,53.07
2023-05-19T06:04:31.614Z,53.07
2023-05-19T06:05:06.706Z,53.57
2023-05-19T06:05:39.458Z,53.16
2023-05-19T06:06:14.789Z,53.51
2023-05-19T06:06:47.110Z,53.51
2023-05-19T06:07:24.554Z,53.63
2023-05-19T06:07:59.815Z,53.53
2023-05-19T06:08:33.768Z,53.50
2023-05-19T06:09:06.006Z,53.12
2023-05-19T06:09:41.189Z,53.53
2023-05-19T06:10:15.187Z,53.57
2023-05-19T06:10:50.155Z,53.33
2023-05-19T06:11:22.643Z,53.72
2023-05-19T06:11:54.875Z,53.29
2023-05-19T06:12:29.687Z,53.71
2023-05-19T06:13:01.934Z,53.68
2023-05-19T06:13:34.368Z,53.32
2023-05-19T06:14:09.195Z,53.31
2023-05-19T06:15:13.837Z,53.41
2023-05-19T06:16:08.346Z,53.30
2023-05-19T06:16:45.150Z,53.63
2023-05-19T06:17:17.716Z,53.86
2023-05-19T06:17:52.542Z,53.66
2023-05-19T06:18:24.820Z,53.91
2023-05-19T06:18:59.195Z,53.41
2023-05-19T06:19:36.728Z,53.40
2023-05-19T06:20:10.392Z,53.63
2023-05-19T06:20:42.681Z,53.57
2023-05-19T06:21:17.902Z,53.70
2023-05-19T06:21:50.076Z,53.79
2023-05-19T06:22:22.280Z,53.78
2023-05-19T06:22:57.058Z,53.88
2023-05-19T06:23:32.028Z,53.36
2023-05-19T06:24:05.839Z,53.55
2023-05-19T06:24:40.608Z,53.68
2023-05-19T06:25:14.750Z,53.70
2023-05-19T06:25:47.926Z,53.81
2023-05-19T06:26:23.127Z,53.66
2023-05-19T06:26:55.577Z,53.72
2023-05-19T06:27:27.786Z,53.67
2023-05-19T06:28:02.630Z,53.79
2023-05-19T06:28:34.836Z,53.66
2023-05-19T06:29:07.080Z,53.36
2023-05-19T06:29:42.133Z,53.54
2023-05-19T06:30:15.263Z,53.58
2023-05-19T06:31:16.649Z,53.27
2023-05-19T06:31:58.374Z,53.72
2023-05-19T06:32:33.367Z,53.36
2023-05-19T06:33:05.999Z,53.19
2023-05-19T06:33:38.415Z,53.39
2023-05-19T06:34:16.546Z,53.32
2023-05-19T06:34:54.846Z,53.41
2023-05-19T06:35:29.906Z,53.30
2023-05-19T06:36:02.230Z,53.53
2023-05-19T06:36:35.986Z,53.49
2023-05-19T06:37:11.416Z,53.35
2023-05-19T06:37:43.671Z,53.58
2023-05-19T06:38:16.270Z,53.66
2023-05-19T06:38:51.193Z,53.59
2023-05-19T06:39:23.479Z,53.21
2023-05-19T06:39:58.264Z,53.53
2023-05-19T06:40:30.803Z,53.28
2023-05-19T06:41:03.389Z,53.25
2023-05-19T06:41:38.280Z,53.18
2023-05-19T06:42:12.752Z,53.43
2023-05-19T06:43:16.386Z,53.11
2023-05-19T06:44:00.104Z,53.63
2023-05-19T06:44:35.543Z,53.51
2023-05-19T06:45:11.713Z,53.51
2023-05-19T06:45:44.095Z,53.15
2023-05-19T06:46:18.019Z,53.46
2023-05-19T06:46:53.211Z,53.50
2023-05-19T06:47:26.099Z,53.50
2023-05-19T06:48:01.192Z,53.17
2023-05-19T06:48:34.923Z,53.22
2023-05-19T06:49:08.129Z,53.38
2023-05-19T06:49:50.930Z,53.03
2023-05-19T06:50:26.067Z,53.22
2023-05-19T06:51:00.877Z,53.15
2023-05-19T06:51:33.390Z,52.95
2023-05-19T06:52:06.278Z,53.08
2023-05-19T06:52:41.407Z,53.20
2023-05-19T06:53:13.647Z,52.98
2023-05-19T06:53:48.508Z,53.27
2023-05-19T06:54:20.771Z,52.75
2023-05-19T06:54:53.050Z,52.80
2023-05-19T06:55:28.142Z,52.96
2023-05-19T06:56:00.563Z,52.63
2023-05-19T06:56:41.667Z,52.49
2023-05-19T06:57:14.149Z,52.26
2023-05-19T06:57:46.465Z,52.56
2023-05-19T06:58:22.016Z,52.01
2023-05-19T06:58:54.368Z,52.04
2023-05-19T06:59:33.366Z,52.52
2023-05-19T07:00:07.542Z,52.16
2023-05-19T07:00:39.773Z,52.19
2023-05-19T07:01:16.780Z,51.92
2023-05-19T07:01:54.574Z,52.07
2023-05-19T07:02:29.003Z,51.49
2023-05-19T07:03:04.080Z,51.77
2023-05-19T07:03:36.627Z,51.63
2023-05-19T07:04:09.312Z,51.30
2023-05-19T07:04:44.089Z,51.13
2023-05-19T07:05:21.013Z,51.07
2023-05-19T07:06:03.766Z,50.92
2023-05-19T07:06:37.361Z,50.71
2023-05-19T07:07:09.725Z,50.76
2023-05-19T07:07:44.851Z,50.57
2023-05-19T07:08:19.856Z,50.82
2023-05-19T07:08:55.374Z,50.33
2023-05-19T07:09:28.127Z,50.43
2023-05-19T07:10:01.876Z,50.61
2023-05-19T07:10:37.849Z,50.22
2023-05-19T07:11:14.603Z,49.91
2023-05-19T07:11:47.890Z,50.08
2023-05-19T07:12:22.689Z,49.97
2023-05-19T07:12:55.446Z,49.67
2023-05-19T07:13:30.355Z,50.00
2023-05-19T07:14:05.327Z,49.79
2023-05-19T07:14:39.056Z,49.59
2023-05-19T07:15:12.037Z,49.44
2023-05-19T07:15:49.174Z,49.38
2023-05-19T07:16:22.679Z,49.37
2023-05-19T07:16:57.550Z,49.06
2023-05-19T07:17:29.917Z,49.36
2023-05-19T07:18:04.822Z,48.83
2023-05-19T07:18:37.220Z,48.95
2023-05-19T07:19:09.501Z,48.89
2023-05-19T07:19:44.682Z,49.07
2023-05-19T07:20:17.163Z,48.57
2023-05-19T07:20:49.641Z,48.78
2023-05-19T07:21:27.033Z,48.48
2023-05-19T07:21:59.603Z,48.77
2023-05-19T07:22:32.477Z,48.26
2023-05-19T07:23:07.282Z,48.61
2023-05-19T07:23:41.295Z,48.26
2023-05-19T07:24:13.889Z,48.34
2023-05-19T07:24:48.643Z,47.95
2023-05-19T07:25:22.502Z,48.33
2023-05-19T07:25:56.363Z,47.89
2023-05-19T07:26:32.300Z,47.87
2023-05-19T07:27:05.480Z,47.67
2023-05-19T07:27:37.684Z,47.61
2023-05-19T07:28:12.464Z,47.91
2023-05-19T07:28:44.751Z,47.55
2023-05-19T07:29:16.921Z,47.87
2023-05-19T07:29:51.799Z,47.95
2023-05-19T07:30:24.039Z,47.84
2023-05-19T07:30:56.474Z,47.52
2023-05-19T07:31:31.357Z,47.51
2023-05-19T07:32:03.741Z,47.44
2023-05-19T07:32:38.618Z,47.63
2023-05-19T07:33:11.026Z,47.45
2023-05-19T07:33:43.333Z,46.92
2023-05-19T07:34:18.198Z,47.29
2023-05-19T07:34:50.396Z,47.05
2023-05-19T07:35:22.902Z,46.97